createdAt,value
2022-11-23T00:01:26.553Z,98754.07
2022-11-23T00:03:58.416Z,98766.02
2022-11-23T00:06:29.199Z,98767.69
2022-11-23T00:09:00.167Z,98761.73
2022-11-23T00:11:31.425Z,98763.41
2022-11-23T00:14:02.654Z,98769.52
2022-11-23T00:16:38.646Z,98768.60
2022-11-23T00:19:10.115Z,98763.41
2022-11-23T00:21:40.910Z,98775.42
2022-11-23T00:24:13.211Z,98773.67
2022-11-23T00:26:44.130Z,98769.31
2022-11-23T00:29:16.239Z,98769.25
2022-11-23T00:31:47.195Z,98768.42
2022-11-23T00:34:18.302Z,98759.78
2022-11-23T00:36:49.111Z,98762.38
2022-11-23T00:39:19.859Z,98764.97
2022-11-23T00:41:51.549Z,98766.66
2022-11-23T00:44:22.626Z,98756.20
2022-11-23T00:46:53.620Z,98761.34
2022-11-23T00:49:24.613Z,98751.81
2022-11-23T00:51:56.592Z,98767.39
2022-11-23T00:54:27.394Z,98768.20
2022-11-23T00:56:58.572Z,98767.39
2022-11-23T00:59:30.030Z,98757.83
2022-11-23T01:02:01.374Z,98764.70
2022-11-23T01:04:32.595Z,98765.61
2022-11-23T01:07:04.016Z,98763.88
2022-11-23T01:09:35.416Z,98764.70
2022-11-23T01:12:06.696Z,98764.79
2022-11-23T01:14:37.603Z,98767.45
2022-11-23T01:17:08.289Z,98763.14
2022-11-23T01:19:39.205Z,98759.78
2022-11-23T01:22:10.227Z,98756.33
2022-11-23T01:24:41.237Z,98754.59
2022-11-23T01:27:12.692Z,98753.73
2022-11-23T01:29:43.527Z,98747.72
2022-11-23T01:32:14.358Z,98745.95
2022-11-23T01:34:45.200Z,98748.55
2022-11-23T01:37:16.165Z,98752.05
2022-11-23T01:39:49.041Z,98751.20
2022-11-23T01:42:20.084Z,98756.33
2022-11-23T01:44:52.254Z,98750.31
2022-11-23T01:47:23.038Z,98750.31
2022-11-23T01:49:54.195Z,98756.39
2022-11-23T01:52:26.711Z,98750.31
2022-11-23T01:55:01.615Z,98751.20
2022-11-23T01:57:36.764Z,98757.25
2022-11-23T02:00:08.494Z,98758.10
2022-11-23T02:02:51.023Z,98760.70
2022-11-23T02:05:23.485Z,98758.86
2022-11-23T02:07:54.587Z,98763.14
2022-11-23T02:10:25.825Z,98769.19
2022-11-23T02:12:56.892Z,98772.64
2022-11-23T02:15:29.482Z,98770.86
2022-11-23T02:18:00.827Z,98769.89
2022-11-23T02:20:32.137Z,98769.77
2022-11-23T02:23:07.560Z,98776.64
2022-11-23T02:25:39.815Z,98772.30
2022-11-23T02:28:12.350Z,98770.62
2022-11-23T02:33:33.115Z,98773.22
2022-11-23T02:36:04.323Z,98767.96
2022-11-23T02:38:35.400Z,98762.84
2022-11-23T02:41:06.408Z,98769.77
2022-11-23T02:43:37.744Z,98768.09
2022-11-23T02:46:08.976Z,98774.10
2022-11-23T02:48:40.092Z,98763.02
2022-11-23T02:51:10.940Z,98757.89
2022-11-23T02:53:41.782Z,98763.08
2022-11-23T02:56:13.500Z,98759.66
2022-11-23T02:58:44.317Z,98760.55
2022-11-23T03:01:16.148Z,98757.95
2022-11-23T03:03:48.731Z,98765.03
2022-11-23T03:06:19.877Z,98759.91
2022-11-23T03:08:51.579Z,98766.92
2022-11-23T03:11:22.784Z,98764.39
2022-11-23T03:13:54.279Z,98776.58
2022-11-23T03:16:26.156Z,98769.77
2022-11-23T03:18:57.088Z,98766.34
2022-11-23T03:21:28.403Z,98769.82
2022-11-23T03:23:59.481Z,98776.78
2022-11-23T03:26:30.779Z,98775.98
2022-11-23T03:29:03.206Z,98782.03
2022-11-23T03:31:34.348Z,98789.87
2022-11-23T03:34:05.376Z,98786.52
2022-11-23T03:36:37.854Z,98781.45
2022-11-23T03:39:08.960Z,98770.27
2022-11-23T03:41:57.838Z,98775.41
2022-11-23T03:44:30.470Z,98774.58
2022-11-23T03:47:02.324Z,98769.45
2022-11-23T03:49:33.680Z,98770.33
2022-11-23T03:52:05.124Z,98775.46
2022-11-23T03:54:36.534Z,98776.38
2022-11-23T03:57:07.661Z,98775.67
2022-11-23T03:59:38.572Z,98771.25
2022-11-23T04:02:11.007Z,98772.16
2022-11-23T04:04:43.655Z,98774.81
2022-11-23T04:07:16.661Z,98769.62
2022-11-23T04:09:49.771Z,98775.67
2022-11-23T04:12:28.295Z,98779.23
2022-11-23T04:14:59.575Z,98779.23
2022-11-23T04:17:33.572Z,98776.64
2022-11-23T04:20:05.893Z,98780.06
2022-11-23T04:22:37.284Z,98783.52
2022-11-23T04:25:08.419Z,98778.44
2022-11-23T04:27:39.478Z,98777.59
2022-11-23T04:30:11.699Z,98787.14
2022-11-23T04:32:44.237Z,98776.64
2022-11-23T04:35:15.809Z,98787.14
2022-11-23T04:37:47.817Z,98793.23
2022-11-23T04:40:19.203Z,98793.23
2022-11-23T04:42:52.143Z,98788.94
2022-11-23T04:45:24.105Z,98793.30
2022-11-23T04:47:57.716Z,98791.41
2022-11-23T04:50:29.433Z,98787.84
2022-11-23T04:53:01.817Z,98788.81
2022-11-23T04:55:34.742Z,98783.52
2022-11-23T04:58:06.213Z,98786.88
2022-11-23T05:00:40.476Z,98781.68
2022-11-23T05:03:12.198Z,98794.54
2022-11-23T05:05:45.277Z,98789.47
2022-11-23T05:08:17.685Z,98796.43
2022-11-23T05:10:50.623Z,98798.17
2022-11-23T05:13:22.258Z,98802.50
2022-11-23T05:15:54.331Z,98798.97
2022-11-23T05:18:27.291Z,98795.45
2022-11-23T05:20:58.531Z,98799.73
2022-11-23T05:23:30.618Z,98798.88
2022-11-23T05:26:02.280Z,98806.59
2022-11-23T05:28:42.164Z,98799.67
2022-11-23T05:31:07.579Z,98805.83
2022-11-23T05:33:38.648Z,98801.47
2022-11-23T05:36:12.016Z,98800.64
2022-11-23T05:38:44.191Z,98799.78
2022-11-23T05:41:17.209Z,98810.16
2022-11-23T05:43:49.021Z,98811.02
2022-11-23T05:46:21.960Z,98814.27
2022-11-23T05:48:53.011Z,98814.15
2022-11-23T05:51:24.858Z,98819.34
2022-11-23T05:53:58.524Z,98814.85
2022-11-23T05:56:40.136Z,98815.66
2022-11-23T05:59:15.186Z,98812.14
2022-11-23T06:01:47.826Z,98822.47
2022-11-23T06:04:20.503Z,98824.14
2022-11-23T06:06:53.633Z,98823.34
2022-11-23T06:09:24.507Z,98819.81
2022-11-23T06:11:56.705Z,98807.59
2022-11-23T06:14:27.829Z,98810.19
2022-11-23T06:17:00.900Z,98807.59
2022-11-23T06:19:33.784Z,98819.59
2022-11-23T06:22:05.324Z,98816.03
2022-11-23T06:24:37.901Z,98820.39
2022-11-23T06:27:29.036Z,98821.16
2022-11-23T06:30:00.509Z,98815.05
2022-11-23T06:32:32.705Z,98818.56
2022-11-23T06:35:04.170Z,98822.84
2022-11-23T06:37:38.076Z,98817.53
2022-11-23T06:40:10.163Z,98818.17
2022-11-23T06:42:41.054Z,98813.78
2022-11-23T06:45:14.066Z,98815.34
2022-11-23T06:47:45.483Z,98805.72
2022-11-23T06:50:19.490Z,98815.22
2022-11-23T06:52:53.550Z,98822.03
2022-11-23T06:55:26.549Z,98820.08
2022-11-23T06:57:58.883Z,98817.53
2022-11-23T07:00:30.312Z,98820.84
2022-11-23T07:03:01.804Z,98815.73
2022-11-23T07:05:34.945Z,98817.26
2022-11-23T07:08:07.295Z,98824.28
2022-11-23T07:10:38.846Z,98828.50
2022-11-23T07:13:11.830Z,98830.06
2022-11-23T07:15:44.357Z,98830.34
2022-11-23T07:18:15.176Z,98831.16
2022-11-23T07:20:47.792Z,98839.59
2022-11-23T07:23:18.866Z,98842.13
2022-11-23T07:25:50.188Z,98839.41
2022-11-23T07:28:21.561Z,98837.80
2022-11-23T07:30:52.781Z,98841.24
2022-11-23T07:33:23.943Z,98842.92
2022-11-23T07:35:54.931Z,98850.50
2022-11-23T07:38:26.299Z,98843.63
2022-11-23T07:40:59.155Z,98846.80
2022-11-23T07:43:49.839Z,98853.77
2022-11-23T07:46:22.499Z,98852.57
2022-11-23T07:48:54.620Z,98853.37
2022-11-23T07:51:25.796Z,98851.47
2022-11-23T07:53:56.827Z,98848.11
2022-11-23T07:56:28.169Z,98853.30
2022-11-23T07:58:59.113Z,98853.15
2022-11-23T08:01:31.784Z,98844.53
2022-11-23T08:04:03.286Z,98847.12
2022-11-23T08:06:34.517Z,98838.35
2022-11-23T08:09:05.978Z,98839.05
2022-11-23T08:11:36.767Z,98839.49
2022-11-23T08:14:07.786Z,98837.02
2022-11-23T08:16:38.798Z,98838.06
2022-11-23T08:19:09.878Z,98840.66
2022-11-23T08:21:41.092Z,98833.66
2022-11-23T08:24:12.051Z,98838.73
2022-11-23T08:26:43.085Z,98837.94
2022-11-23T08:29:13.836Z,98833.72
2022-11-23T08:31:44.740Z,98844.06
2022-11-23T08:34:16.046Z,98839.43
2022-11-23T08:36:48.213Z,98841.67
2022-11-23T08:39:19.658Z,98838.88
2022-11-23T08:41:50.509Z,98843.66
2022-11-23T08:44:21.496Z,98855.48
2022-11-23T08:46:52.673Z,98852.59
2022-11-23T08:49:23.597Z,98853.88
2022-11-23T08:51:54.980Z,98856.11
2022-11-23T08:54:25.794Z,98848.86
2022-11-23T08:56:56.708Z,98859.00
2022-11-23T08:59:28.124Z,98861.17
2022-11-23T09:02:00.953Z,98853.84
2022-11-23T09:04:31.927Z,98858.61
2022-11-23T09:07:04.300Z,98847.27
2022-11-23T09:09:35.371Z,98854.16
2022-11-23T09:12:06.903Z,98853.09
2022-11-23T09:14:37.913Z,98854.80
2022-11-23T09:17:09.329Z,98855.48
2022-11-23T09:19:40.434Z,98855.17
2022-11-23T09:22:11.351Z,98858.25
2022-11-23T09:24:42.238Z,98863.32
2022-11-23T09:27:13.641Z,98857.91
2022-11-23T09:29:45.028Z,98855.13
2022-11-23T09:32:15.931Z,98852.27
2022-11-23T09:34:47.086Z,98854.66
2022-11-23T09:37:17.892Z,98848.27
2022-11-23T09:39:49.288Z,98849.98
2022-11-23T09:42:33.758Z,98857.63
2022-11-23T09:45:22.768Z,98855.27
2022-11-23T09:48:12.149Z,98850.20
2022-11-23T09:50:59.695Z,98855.94
2022-11-23T09:53:32.614Z,98856.30
2022-11-23T09:56:03.857Z,98860.17
2022-11-23T09:58:36.228Z,98859.70
2022-11-23T10:01:08.737Z,98852.48
2022-11-23T10:03:46.982Z,98858.81
2022-11-23T10:06:21.982Z,98860.17
2022-11-23T10:08:57.395Z,98856.17
2022-11-23T10:11:29.987Z,98858.08
2022-11-23T10:14:05.960Z,98855.48
2022-11-23T10:16:50.295Z,98856.67
2022-11-23T10:19:22.562Z,98858.71
2022-11-23T10:21:55.267Z,98852.95
2022-11-23T10:24:28.974Z,98856.61
2022-11-23T10:27:00.384Z,98859.27
2022-11-23T10:29:33.673Z,98862.92
2022-11-23T10:32:06.234Z,98866.52
2022-11-23T10:34:38.715Z,98866.52
2022-11-23T10:37:17.032Z,98864.97
2022-11-23T10:39:48.260Z,98860.69
2022-11-23T10:42:20.703Z,98858.84
2022-11-23T10:44:52.494Z,98857.30
2022-11-23T10:47:34.004Z,98864.04
2022-11-23T10:50:05.486Z,98858.28
2022-11-23T10:52:36.381Z,98871.41
2022-11-23T10:55:09.343Z,98870.71
2022-11-23T10:57:45.426Z,98866.69
2022-11-23T11:00:17.982Z,98872.87
2022-11-23T11:02:50.862Z,98873.73
2022-11-23T11:05:40.155Z,98869.44
2022-11-23T11:07:57.305Z,98869.51
2022-11-23T11:10:35.810Z,98870.62
2022-11-23T11:13:24.619Z,98880.16
2022-11-23T11:16:05.885Z,98875.24
2022-11-23T11:18:37.975Z,98876.47
2022-11-23T11:21:10.903Z,98884.33
2022-11-23T11:23:42.572Z,98885.31
2022-11-23T11:26:23.868Z,98881.95
2022-11-23T11:28:56.699Z,98897.47
2022-11-23T11:31:32.202Z,98892.34
2022-11-23T11:34:10.853Z,98890.97
2022-11-23T11:36:43.034Z,98892.00
2022-11-23T11:39:18.746Z,98899.09
2022-11-23T11:41:50.167Z,98902.45
2022-11-23T11:44:22.430Z,98901.75
2022-11-23T11:46:57.568Z,98906.23
2022-11-23T11:49:29.927Z,98908.31
2022-11-23T11:52:02.781Z,98912.59
2022-11-23T11:54:37.151Z,98911.87
2022-11-23T11:57:10.190Z,98918.92
2022-11-23T11:59:45.873Z,98919.84
2022-11-23T12:02:21.177Z,98920.81
2022-11-23T12:04:56.496Z,98932.06
2022-11-23T12:07:35.207Z,98925.74
2022-11-23T12:10:13.419Z,98933.63
2022-11-23T12:12:44.816Z,98934.39
2022-11-23T12:15:47.696Z,98937.05
2022-11-23T12:17:57.809Z,98944.02
2022-11-23T12:20:36.097Z,98946.72
2022-11-23T12:23:08.546Z,98945.05
2022-11-23T12:25:40.810Z,98951.06
2022-11-23T12:28:16.670Z,98959.59
2022-11-23T12:30:55.241Z,98957.05
2022-11-23T12:33:27.818Z,98968.41
2022-11-23T12:36:00.215Z,98967.55
2022-11-23T12:38:32.551Z,98973.61
2022-11-23T12:41:23.900Z,98970.09
2022-11-23T12:44:12.328Z,98976.00
2022-11-23T12:46:48.349Z,98976.26
2022-11-23T12:49:26.749Z,98985.73
2022-11-23T12:52:15.080Z,98985.79
2022-11-23T12:54:47.332Z,98989.19
2022-11-23T12:57:31.671Z,98996.77
2022-11-23T13:00:03.978Z,98993.84
2022-11-23T13:02:42.675Z,99001.73
2022-11-23T13:05:15.025Z,99001.73
2022-11-23T13:07:49.501Z,99004.50
2022-11-23T13:10:24.760Z,99003.78
2022-11-23T13:13:16.065Z,99002.09
2022-11-23T13:15:50.824Z,99002.27
2022-11-23T13:18:35.146Z,99019.57
2022-11-23T13:21:19.634Z,99020.32
2022-11-23T13:23:50.624Z,99022.97
2022-11-23T13:26:25.707Z,99018.64
2022-11-23T13:28:58.707Z,99013.66
2022-11-23T13:31:31.729Z,99015.48
2022-11-23T13:34:04.007Z,99026.59
2022-11-23T13:37:10.505Z,99018.80
2022-11-23T13:39:28.381Z,99014.62
2022-11-23T13:42:01.482Z,99025.13
2022-11-23T13:44:33.375Z,99026.94
2022-11-23T13:47:16.456Z,99022.72
2022-11-23T13:49:54.092Z,99024.51
2022-11-23T13:52:26.826Z,99028.06
2022-11-23T13:55:10.193Z,99029.99
2022-11-23T13:57:43.787Z,99040.48
2022-11-23T14:00:32.542Z,99036.30
2022-11-23T14:03:21.223Z,99049.38
2022-11-23T14:05:53.484Z,99053.79
2022-11-23T14:08:26.517Z,99047.22
2022-11-23T14:10:58.449Z,99060.32
2022-11-23T14:13:34.273Z,99063.02
2022-11-23T14:16:05.869Z,99061.43
2022-11-23T14:18:41.274Z,99059.80
2022-11-23T14:21:16.434Z,99059.84
2022-11-23T14:23:51.879Z,99063.30
2022-11-23T14:26:24.399Z,99066.04
2022-11-23T14:28:57.209Z,99069.59
2022-11-23T14:31:46.283Z,99072.23
2022-11-23T14:34:21.676Z,99069.64
2022-11-23T14:36:56.751Z,99074.88
2022-11-23T14:39:38.791Z,99072.13
2022-11-23T14:42:14.307Z,99078.37
2022-11-23T14:44:45.881Z,99077.70
2022-11-23T14:47:18.166Z,99076.78
2022-11-23T14:49:50.310Z,99080.16
2022-11-23T14:52:25.667Z,99088.02
2022-11-23T14:54:58.001Z,99085.61
2022-11-23T14:57:30.757Z,99086.66
2022-11-23T15:00:03.923Z,99085.88
2022-11-23T15:02:36.320Z,99096.34
2022-11-23T15:05:09.396Z,99094.61
2022-11-23T15:07:44.987Z,99097.30
2022-11-23T15:10:29.523Z,99100.75
2022-11-23T15:13:00.920Z,99103.44
2022-11-23T15:15:33.740Z,99110.30
2022-11-23T15:18:05.053Z,99110.21
2022-11-23T15:20:37.376Z,99104.39
2022-11-23T15:23:08.210Z,99102.70
2022-11-23T15:25:39.447Z,99111.26
2022-11-23T15:28:11.962Z,99116.44
2022-11-23T15:30:42.976Z,99119.89
2022-11-23T15:33:13.723Z,99125.77
2022-11-23T15:35:44.887Z,99127.66
2022-11-23T15:38:22.059Z,99132.80
2022-11-23T15:40:50.908Z,99142.45
2022-11-23T15:43:21.737Z,99146.67
2022-11-23T15:45:53.976Z,99150.17
2022-11-23T15:48:26.403Z,99152.03
2022-11-23T15:51:04.750Z,99154.80
2022-11-23T15:53:52.047Z,99163.56
2022-11-23T15:56:33.234Z,99159.33
2022-11-23T15:59:06.005Z,99158.59
2022-11-23T16:01:38.711Z,99169.04
2022-11-23T16:04:11.333Z,99161.27
2022-11-23T16:06:44.057Z,99169.73
2022-11-23T16:09:50.711Z,99175.65
2022-11-23T16:12:06.204Z,99181.61
2022-11-23T16:14:37.486Z,99172.98
2022-11-23T16:17:25.304Z,99175.44
2022-11-23T16:19:58.023Z,99173.09
2022-11-23T16:22:39.134Z,99176.72
2022-11-23T16:25:11.980Z,99176.72
2022-11-23T16:27:43.507Z,99177.88
2022-11-23T16:30:27.725Z,99181.38
2022-11-23T16:32:59.485Z,99186.64
2022-11-23T16:35:30.648Z,99179.86
2022-11-23T16:38:01.693Z,99190.30
2022-11-23T16:40:32.602Z,99185.90
2022-11-23T16:43:04.356Z,99193.63
2022-11-23T16:45:35.593Z,99197.86
2022-11-23T16:48:08.119Z,99192.72
2022-11-23T16:50:39.268Z,99206.49
2022-11-23T16:53:11.528Z,99208.22
2022-11-23T16:55:43.977Z,99204.77
2022-11-23T16:58:16.676Z,99201.39
2022-11-23T17:00:49.499Z,99211.02
2022-11-23T17:03:21.112Z,99206.45
2022-11-23T17:05:53.564Z,99203.98
2022-11-23T17:08:24.898Z,99210.06
2022-11-23T17:11:06.081Z,99211.88
2022-11-23T17:13:40.790Z,99226.59
2022-11-23T17:16:16.005Z,99225.81
2022-11-23T17:18:47.997Z,99226.00
2022-11-23T17:21:20.173Z,99228.55
2022-11-23T17:23:52.420Z,99232.83
2022-11-23T17:26:42.558Z,99239.70
2022-11-23T17:29:20.269Z,99246.72
2022-11-23T17:31:52.227Z,99256.02
2022-11-23T17:34:23.785Z,99258.69
2022-11-23T17:36:55.421Z,99254.37
2022-11-23T17:39:28.542Z,99261.23
2022-11-23T17:42:04.823Z,99257.87
2022-11-23T17:44:34.370Z,99259.55
2022-11-23T17:47:06.346Z,99268.38
2022-11-23T17:49:37.713Z,99275.43
2022-11-23T17:52:11.160Z,99271.87
2022-11-23T17:54:43.796Z,99271.05
2022-11-23T17:57:17.089Z,99273.63
2022-11-23T17:59:48.583Z,99282.22
2022-11-23T18:02:22.490Z,99281.41
2022-11-23T18:04:58.250Z,99280.61
2022-11-23T18:07:39.997Z,99277.27
2022-11-23T18:10:14.362Z,99287.59
2022-11-23T18:12:52.098Z,99286.88
2022-11-23T18:18:52.113Z,99292.99
2022-11-23T18:21:23.974Z,99303.45
2022-11-23T18:24:04.133Z,99301.84
2022-11-23T18:26:32.076Z,99306.37
2022-11-23T18:29:03.910Z,99301.27
2022-11-23T18:31:35.655Z,99302.30
2022-11-23T18:34:06.938Z,99292.99
2022-11-23T18:36:39.403Z,99299.89
2022-11-23T18:39:10.974Z,99296.55
2022-11-23T18:41:43.430Z,99302.72
2022-11-23T18:44:18.701Z,99306.10
2022-11-23T18:46:55.066Z,99306.17
2022-11-23T18:49:28.526Z,99317.52
2022-11-23T18:52:01.226Z,99320.14
2022-11-23T18:54:33.816Z,99318.45
2022-11-23T18:57:06.045Z,99322.80
2022-11-23T19:00:02.528Z,99325.38
2022-11-23T19:02:21.008Z,99321.96
2022-11-23T19:04:53.847Z,99328.03
2022-11-23T19:07:27.419Z,99338.28
2022-11-23T19:09:58.383Z,99328.86
2022-11-23T19:12:31.212Z,99330.48
2022-11-23T19:15:16.362Z,99333.03
2022-11-23T19:17:51.412Z,99332.17
2022-11-23T19:20:23.958Z,99342.42
2022-11-23T19:22:55.328Z,99346.80
2022-11-23T19:25:27.916Z,99352.80
2022-11-23T19:28:01.026Z,99343.28
2022-11-23T19:30:34.340Z,99353.63
2022-11-23T19:33:08.429Z,99359.07
2022-11-23T19:35:43.759Z,99358.27
2022-11-23T19:38:19.320Z,99361.72
2022-11-23T19:40:52.583Z,99355.69
2022-11-23T19:43:23.673Z,99361.72
2022-11-23T19:45:58.957Z,99366.16
2022-11-23T19:48:36.606Z,99370.44
2022-11-23T19:54:02.350Z,99375.00
2022-11-23T19:56:33.888Z,99384.52
2022-11-23T19:59:06.900Z,99387.12
2022-11-23T20:01:39.382Z,99392.17
2022-11-23T20:04:11.396Z,99388.77
2022-11-23T20:06:45.239Z,99393.07
2022-11-23T20:09:21.734Z,99396.55
2022-11-23T20:11:53.370Z,99398.42
2022-11-23T20:14:26.295Z,99403.62
2022-11-23T20:16:59.307Z,99400.30
2022-11-23T20:19:30.930Z,99400.30
2022-11-23T20:22:01.972Z,99401.10
2022-11-23T20:24:33.165Z,99395.93
2022-11-23T20:27:04.633Z,99403.69
2022-11-23T20:29:36.173Z,99401.28
2022-11-23T20:32:07.317Z,99408.98
2022-11-23T20:34:38.929Z,99407.37
2022-11-23T20:37:10.031Z,99410.91
2022-11-23T20:39:42.487Z,99415.24
2022-11-23T20:42:14.574Z,99421.36
2022-11-23T20:44:46.885Z,99423.17
2022-11-23T20:47:18.957Z,99422.45
2022-11-23T20:49:53.317Z,99423.40
2022-11-23T20:52:25.475Z,99426.90
2022-11-23T20:55:00.128Z,99430.31
2022-11-23T20:57:31.657Z,99435.42
2022-11-23T21:00:03.123Z,99445.02
2022-11-23T21:02:35.663Z,99449.50
2022-11-23T21:05:08.751Z,99449.72
2022-11-23T21:07:39.846Z,99451.52
2022-11-23T21:10:12.972Z,99456.73
2022-11-23T21:13:03.128Z,99465.48
2022-11-23T21:15:34.442Z,99464.66
2022-11-23T21:18:05.941Z,99461.28
2022-11-23T21:20:37.357Z,99466.38
2022-11-23T21:23:08.580Z,99473.23
2022-11-23T21:25:39.838Z,99472.45
2022-11-23T21:28:11.089Z,99471.67
2022-11-23T21:30:42.871Z,99476.70
2022-11-23T21:33:14.891Z,99481.88
2022-11-23T21:35:48.567Z,99477.64
2022-11-23T21:38:19.974Z,99480.34
2022-11-23T21:40:52.526Z,99475.20
2022-11-23T21:43:23.576Z,99473.45
2022-11-23T21:46:01.532Z,99485.43
2022-11-23T21:48:32.930Z,99486.36
2022-11-23T21:51:09.289Z,99485.43
2022-11-23T21:53:42.266Z,99491.52
2022-11-23T21:56:14.491Z,99494.95
2022-11-23T21:58:46.097Z,99492.37
2022-11-23T22:01:19.073Z,99498.42
2022-11-23T22:03:51.784Z,99495.81
2022-11-23T22:06:25.605Z,99500.92
2022-11-23T22:09:00.193Z,99490.65
2022-11-23T22:11:32.381Z,99492.37
2022-11-23T22:14:06.683Z,99497.51
2022-11-23T22:16:42.949Z,99498.25
2022-11-23T22:19:16.005Z,99507.73
2022-11-23T22:21:47.578Z,99506.91
2022-11-23T22:24:20.419Z,99506.14
2022-11-23T22:26:51.620Z,99502.70
2022-11-23T22:29:23.138Z,99509.55
2022-11-23T22:31:54.923Z,99513.78
2022-11-23T22:34:26.941Z,99518.93
2022-11-23T22:37:00.244Z,99523.19
2022-11-23T22:39:32.290Z,99516.30
2022-11-23T22:42:04.009Z,99518.80
2022-11-23T22:44:36.175Z,99523.09
2022-11-23T22:47:09.238Z,99519.61
2022-11-23T22:49:41.032Z,99523.00
2022-11-23T22:52:12.230Z,99523.86
2022-11-23T22:54:44.475Z,99532.49
2022-11-23T22:57:15.501Z,99524.77
2022-11-23T22:59:46.581Z,99529.07
2022-11-23T23:02:18.048Z,99529.91
2022-11-23T23:04:49.249Z,99530.77
2022-11-23T23:07:20.521Z,99529.07
2022-11-23T23:09:52.580Z,99533.34
2022-11-23T23:12:24.276Z,99535.08
2022-11-23T23:14:55.256Z,99535.02
2022-11-23T23:17:26.332Z,99541.91
2022-11-23T23:19:58.475Z,99546.22
2022-11-23T23:22:29.509Z,99542.77
2022-11-23T23:25:06.459Z,99545.41
2022-11-23T23:27:34.608Z,99541.05
2022-11-23T23:30:06.719Z,99542.73
2022-11-23T23:32:38.183Z,99538.47
2022-11-23T23:35:10.933Z,99537.70
2022-11-23T23:37:41.960Z,99539.44
2022-11-23T23:40:13.333Z,99545.50
2022-11-23T23:42:44.458Z,99534.36
2022-11-23T23:45:15.677Z,99546.41
2022-11-23T23:47:46.797Z,99552.48
2022-11-23T23:50:18.684Z,99552.48
2022-11-23T23:52:53.446Z,99556.03
2022-11-23T23:55:26.721Z,99555.23
2022-11-23T23:57:59.516Z,99565.59
